Airport View

Enter AWOS ICAO identifier for current METAR.

ex. KFNL

K82C 300425Z AUTO 32003KT 7SM OVC039 00/M06 A3015 RMK AO2 T00021056

30 Oct 2020 04:26

Frequency: 123.925

Phone: 608-562-6153

Other Area AWOS: KVOK - KC35 - KDLL - KCMY

TAF KVOK 291700Z 2917/3023 36006KT 9999 BKN035 QNH3003INS BECMG 3006/3007 33006KT 9999 SCT025 QNH3014INS BECMG 3012/3013 VRB06KT 9999 FEW030 QNH3019INS TX04/2919Z TNM02/3013Z LAST NO AMDS AFT 2921 NEXT 3009